createdAt,value
2023-04-15T00:02:00.707Z,10.18
2023-04-15T00:04:28.899Z,10.29
2023-04-15T00:06:56.405Z,10.11
2023-04-15T00:09:23.970Z,10.26
2023-04-15T00:11:51.655Z,10.28
2023-04-15T00:14:19.040Z,10.26
2023-04-15T00:16:46.503Z,10.28
2023-04-15T00:19:14.182Z,10.35
2023-04-15T00:21:42.025Z,10.37
2023-04-15T00:24:09.502Z,10.31
2023-04-15T00:26:37.496Z,10.44
2023-04-15T00:29:05.209Z,10.40
2023-04-15T00:34:01.075Z,10.34
2023-04-15T00:36:28.496Z,10.32
2023-04-15T00:38:55.876Z,10.43
2023-04-15T00:41:23.571Z,10.44
2023-04-15T00:43:51.110Z,10.44
2023-04-15T00:46:20.696Z,10.39
2023-04-15T00:48:48.528Z,10.45
2023-04-15T00:51:16.224Z,10.50
2023-04-15T00:53:43.754Z,10.57
2023-04-15T00:56:11.538Z,10.57
2023-04-15T00:58:39.020Z,10.37
2023-04-15T01:01:06.501Z,10.53
2023-04-15T01:03:34.615Z,10.50
2023-04-15T01:06:04.032Z,10.55
2023-04-15T01:08:31.807Z,10.55
2023-04-15T01:11:03.483Z,10.59
2023-04-15T01:13:32.374Z,10.56
2023-04-15T01:16:00.926Z,10.57
2023-04-15T01:18:29.503Z,10.63
2023-04-15T01:20:57.329Z,10.74
2023-04-15T01:23:25.100Z,10.58
2023-04-15T01:25:53.427Z,10.58
2023-04-15T01:28:21.356Z,10.62
2023-04-15T01:30:49.165Z,10.83
2023-04-15T01:33:16.826Z,10.76
2023-04-15T01:36:05.615Z,10.74
2023-04-15T01:38:33.399Z,10.66
2023-04-15T01:41:00.741Z,10.62
2023-04-15T01:43:29.696Z,10.70
2023-04-15T01:45:58.740Z,10.78
2023-04-15T01:48:27.462Z,10.84
2023-04-15T01:50:59.020Z,10.77
2023-04-15T01:53:28.334Z,10.84
2023-04-15T01:55:57.208Z,10.89
2023-04-15T01:58:26.162Z,10.91
2023-04-15T02:00:55.178Z,10.95
2023-04-15T02:03:25.447Z,11.09
2023-04-15T02:05:54.357Z,10.95
2023-04-15T02:08:23.170Z,11.03
2023-04-15T02:10:52.738Z,10.99
2023-04-15T02:13:21.402Z,10.95
2023-04-15T02:15:52.594Z,11.00
2023-04-15T02:18:21.606Z,11.01
2023-04-15T02:20:52.516Z,11.01
2023-04-15T02:23:21.319Z,11.04
2023-04-15T02:25:53.553Z,11.11
2023-04-15T02:28:22.918Z,11.06
2023-04-15T02:30:53.390Z,11.06
2023-04-15T02:33:22.637Z,11.04
2023-04-15T02:35:51.379Z,11.18
2023-04-15T02:38:20.371Z,11.08
2023-04-15T02:40:50.418Z,11.12
2023-04-15T02:43:19.396Z,11.11
2023-04-15T02:45:48.726Z,11.10
2023-04-15T02:48:19.450Z,11.22
2023-04-15T02:50:48.486Z,11.19
2023-04-15T02:55:46.501Z,11.01
2023-04-15T02:58:15.482Z,10.99
2023-04-15T03:00:44.159Z,11.07
2023-04-15T03:03:15.272Z,11.04
2023-04-15T03:05:44.559Z,11.21
2023-04-15T03:08:14.725Z,11.14
2023-04-15T03:10:43.459Z,11.15
2023-04-15T03:13:12.649Z,11.15
2023-04-15T03:15:42.060Z,11.09
2023-04-15T03:18:11.023Z,11.11
2023-04-15T03:20:40.174Z,11.06
2023-04-15T03:25:37.850Z,11.04
2023-04-15T03:28:07.105Z,11.06
2023-04-15T03:30:35.974Z,11.16
2023-04-15T03:33:04.725Z,11.20
2023-04-15T03:35:34.730Z,11.19
2023-04-15T03:38:03.409Z,11.13
2023-04-15T03:40:32.078Z,11.06
2023-04-15T03:43:00.994Z,11.03
2023-04-15T03:45:29.667Z,11.15
2023-04-15T03:48:07.365Z,11.08
2023-04-15T03:50:46.059Z,10.99
2023-04-15T03:53:15.574Z,10.94
2023-04-15T03:55:44.802Z,10.94
2023-04-15T03:58:13.935Z,10.93
2023-04-15T04:00:42.646Z,11.03
2023-04-15T04:03:12.097Z,11.02
2023-04-15T04:05:41.615Z,11.06
2023-04-15T04:08:11.195Z,10.98
2023-04-15T04:10:40.287Z,11.02
2023-04-15T04:13:08.926Z,11.02
2023-04-15T04:15:37.803Z,11.06
2023-04-15T04:18:06.818Z,11.10
2023-04-15T04:20:35.608Z,11.09
2023-04-15T04:23:04.304Z,11.17
2023-04-15T04:25:33.508Z,11.27
2023-04-15T04:28:02.167Z,11.12
2023-04-15T04:30:30.909Z,11.18
2023-04-15T04:33:00.449Z,11.07
2023-04-15T04:35:29.181Z,11.10
2023-04-15T04:37:57.933Z,11.12
2023-04-15T04:40:27.490Z,11.24
2023-04-15T04:42:56.178Z,11.17
2023-04-15T04:45:24.828Z,11.24
2023-04-15T04:47:53.908Z,11.30
2023-04-15T04:50:22.616Z,11.27
2023-04-15T04:52:51.285Z,11.24
2023-04-15T04:55:20.558Z,11.27
2023-04-15T04:57:49.332Z,11.32
2023-04-15T05:00:18.081Z,11.44
2023-04-15T05:02:47.330Z,11.43
2023-04-15T05:05:16.205Z,11.53
2023-04-15T05:07:44.969Z,11.55
2023-04-15T05:10:15.252Z,11.49
2023-04-15T05:12:44.257Z,11.62
2023-04-15T05:15:12.959Z,11.66
2023-04-15T05:17:41.938Z,11.67
2023-04-15T05:20:11.874Z,11.75
2023-04-15T05:22:40.951Z,11.78
2023-04-15T05:25:10.146Z,11.97
2023-04-15T05:27:38.854Z,11.89
2023-04-15T05:30:08.896Z,11.88
2023-04-15T05:32:38.055Z,11.90
2023-04-15T05:35:08.088Z,11.89
2023-04-15T05:37:36.804Z,11.81
2023-04-15T05:40:06.284Z,11.92
2023-04-15T05:42:35.570Z,11.93
2023-04-15T05:45:08.994Z,11.81
2023-04-15T05:47:38.348Z,11.83
2023-04-15T05:50:08.225Z,11.99
2023-04-15T05:52:37.035Z,11.87
2023-04-15T05:55:06.512Z,11.98
2023-04-15T05:57:35.226Z,12.04
2023-04-15T06:00:05.318Z,12.10
2023-04-15T06:02:38.285Z,12.34
2023-04-15T06:05:09.885Z,12.67
2023-04-15T06:07:38.996Z,13.00
2023-04-15T06:10:08.449Z,13.23
2023-04-15T06:12:37.197Z,13.40
2023-04-15T06:15:06.675Z,13.33
2023-04-15T06:17:35.799Z,13.48
2023-04-15T06:20:04.865Z,13.61
2023-04-15T06:22:33.611Z,13.74
2023-04-15T06:25:02.654Z,13.74
2023-04-15T06:27:31.302Z,13.78
2023-04-15T06:30:00.118Z,13.95
2023-04-15T06:32:29.215Z,14.03
2023-04-15T06:34:58.142Z,14.15
2023-04-15T06:37:26.868Z,14.24
2023-04-15T06:39:56.144Z,14.46
2023-04-15T06:42:25.056Z,14.63
2023-04-15T06:44:53.724Z,14.50
2023-04-15T06:47:22.777Z,14.42
2023-04-15T06:49:51.955Z,14.47
2023-04-15T06:52:20.668Z,14.35
2023-04-15T06:54:49.624Z,14.37
2023-04-15T06:57:18.331Z,14.21
2023-04-15T06:59:47.115Z,14.11
2023-04-15T07:02:16.436Z,14.08
2023-04-15T07:04:45.105Z,14.16
2023-04-15T07:07:13.725Z,14.18
2023-04-15T07:09:42.810Z,14.14
2023-04-15T07:12:11.563Z,14.01
2023-04-15T07:14:40.236Z,14.08
2023-04-15T07:17:09.608Z,14.04
2023-04-15T07:19:38.503Z,14.12
2023-04-15T07:22:07.750Z,14.08
2023-04-15T07:24:36.701Z,14.16
2023-04-15T07:27:05.358Z,14.30
2023-04-15T07:29:34.229Z,14.24
2023-04-15T07:32:03.501Z,14.34
2023-04-15T07:34:32.800Z,14.36
2023-04-15T07:37:02.093Z,14.46
2023-04-15T07:39:31.525Z,14.54
2023-04-15T07:42:00.319Z,14.59
2023-04-15T07:44:29.042Z,14.62
2023-04-15T07:46:57.978Z,14.64
2023-04-15T07:49:26.615Z,14.21
2023-04-15T07:51:56.545Z,13.96
2023-04-15T07:54:25.779Z,13.94
2023-04-15T07:56:54.589Z,14.10
2023-04-15T07:59:23.229Z,14.16
2023-04-15T08:01:52.225Z,14.58
2023-04-15T08:04:21.489Z,14.88
2023-04-15T08:06:50.456Z,14.90
2023-04-15T08:09:19.432Z,14.77
2023-04-15T08:11:51.656Z,14.89
2023-04-15T08:14:20.790Z,14.88
2023-04-15T08:16:49.731Z,14.64
2023-04-15T08:19:18.442Z,14.82
2023-04-15T08:21:47.350Z,14.79
2023-04-15T08:24:16.260Z,15.02
2023-04-15T08:26:44.899Z,14.97
2023-04-15T08:29:13.814Z,15.12
2023-04-15T08:31:42.849Z,15.02
2023-04-15T08:34:12.424Z,15.10
2023-04-15T08:36:41.610Z,15.03
2023-04-15T08:39:10.596Z,15.04
2023-04-15T08:41:41.674Z,14.99
2023-04-15T08:44:11.321Z,14.93
2023-04-15T08:46:42.542Z,14.89
2023-04-15T08:49:13.233Z,14.82
2023-04-15T08:51:42.046Z,14.63
2023-04-15T08:54:11.132Z,14.45
2023-04-15T08:56:40.865Z,14.70
2023-04-15T08:59:09.881Z,14.59
2023-04-15T09:01:39.292Z,14.76
2023-04-15T09:04:08.352Z,14.92
2023-04-15T09:06:37.194Z,15.11
2023-04-15T09:09:06.192Z,15.16
2023-04-15T09:11:34.854Z,15.14
2023-04-15T09:14:03.742Z,15.29
2023-04-15T09:16:53.165Z,15.22
2023-04-15T09:19:23.897Z,15.09
2023-04-15T09:21:58.887Z,15.09
2023-04-15T09:24:37.468Z,15.25
2023-04-15T09:27:06.859Z,15.24
2023-04-15T09:29:35.574Z,15.09
2023-04-15T09:32:11.770Z,15.21
2023-04-15T09:34:40.745Z,15.32
2023-04-15T09:37:10.984Z,15.31
2023-04-15T09:39:51.079Z,15.27
2023-04-15T09:42:26.962Z,15.27
2023-04-15T09:44:56.118Z,15.23
2023-04-15T09:47:32.204Z,14.97
2023-04-15T09:50:01.693Z,14.52
2023-04-15T09:52:30.690Z,14.46
2023-04-15T09:55:00.239Z,14.32
2023-04-15T09:57:36.700Z,14.41
2023-04-15T10:00:06.903Z,14.53
2023-04-15T10:02:35.861Z,14.87
2023-04-15T10:05:06.019Z,14.91
2023-04-15T10:07:35.165Z,14.93
2023-04-15T10:10:05.412Z,14.84
2023-04-15T10:12:35.893Z,14.78
2023-04-15T10:15:05.662Z,14.89
2023-04-15T10:17:36.993Z,14.74
2023-04-15T10:20:07.164Z,14.70
2023-04-15T10:22:36.715Z,14.84
2023-04-15T10:25:06.019Z,14.89
2023-04-15T10:27:35.134Z,14.77
2023-04-15T10:30:04.584Z,14.74
2023-04-15T10:32:33.432Z,14.65
2023-04-15T10:35:02.404Z,14.80
2023-04-15T10:37:36.361Z,14.80
2023-04-15T10:40:24.457Z,14.85
2023-04-15T10:43:00.267Z,15.00
2023-04-15T10:45:33.220Z,14.97
2023-04-15T10:48:04.189Z,14.93
2023-04-15T10:50:33.328Z,14.95
2023-04-15T10:53:05.589Z,14.84
2023-04-15T10:55:35.365Z,14.67
2023-04-15T10:58:04.404Z,14.52
2023-04-15T11:00:35.242Z,14.62
2023-04-15T11:03:08.936Z,14.53
2023-04-15T11:05:51.103Z,14.60
2023-04-15T11:08:21.265Z,14.52
2023-04-15T11:10:53.872Z,14.33
2023-04-15T11:13:25.195Z,14.29
2023-04-15T11:15:56.836Z,14.32
2023-04-15T11:18:28.520Z,14.53
2023-04-15T11:20:59.790Z,14.52
2023-04-15T11:23:35.694Z,14.51
2023-04-15T11:26:09.258Z,14.64
2023-04-15T11:28:40.793Z,14.81
2023-04-15T11:31:14.122Z,14.75
2023-04-15T11:34:04.117Z,14.80
2023-04-15T11:36:33.127Z,14.87
2023-04-15T11:39:02.147Z,14.78
2023-04-15T11:41:30.934Z,14.67
2023-04-15T11:43:59.800Z,14.87
2023-04-15T11:46:30.979Z,14.80
2023-04-15T11:49:00.343Z,14.53
2023-04-15T11:51:33.409Z,14.57
2023-04-15T11:54:01.279Z,14.65
2023-04-15T11:56:29.216Z,14.80
2023-04-15T11:58:59.362Z,14.86
2023-04-15T12:01:39.872Z,14.76
2023-04-15T12:04:16.491Z,14.89
2023-04-15T12:06:43.972Z,14.96
2023-04-15T12:09:16.573Z,14.87
2023-04-15T12:11:47.386Z,15.05
2023-04-15T12:14:31.292Z,15.01
2023-04-15T12:17:01.418Z,14.78
2023-04-15T12:19:29.978Z,14.75
2023-04-15T12:22:00.615Z,14.69
2023-04-15T12:24:31.698Z,14.80
2023-04-15T12:27:06.144Z,14.83
2023-04-15T12:29:35.255Z,15.06
2023-04-15T12:32:13.756Z,15.08
2023-04-15T12:34:52.453Z,15.19
2023-04-15T12:37:20.618Z,15.26
2023-04-15T12:39:49.616Z,15.22
2023-04-15T12:42:18.264Z,15.22
2023-04-15T12:44:46.915Z,15.26
2023-04-15T12:47:14.810Z,15.31
2023-04-15T12:49:42.208Z,15.25
2023-04-15T12:52:09.994Z,15.27
2023-04-15T12:54:37.488Z,15.29
2023-04-15T12:57:07.130Z,15.29
2023-04-15T12:59:36.035Z,15.16
2023-04-15T13:02:04.136Z,15.17
2023-04-15T13:04:32.077Z,15.22
2023-04-15T13:06:59.914Z,15.16
2023-04-15T13:09:27.356Z,15.15
2023-04-15T13:11:54.881Z,15.47
2023-04-15T13:14:22.670Z,15.43
2023-04-15T13:16:50.559Z,15.23
2023-04-15T13:19:18.049Z,15.23
2023-04-15T13:21:46.082Z,15.09
2023-04-15T13:24:13.661Z,15.07
2023-04-15T13:26:41.900Z,15.10
2023-04-15T13:29:09.880Z,15.02
2023-04-15T13:31:37.377Z,15.03
2023-04-15T13:34:05.102Z,15.19
2023-04-15T13:36:32.987Z,15.22
2023-04-15T13:39:00.648Z,15.38
2023-04-15T13:41:28.017Z,15.57
2023-04-15T13:43:55.787Z,15.65
2023-04-15T13:46:23.296Z,15.74
2023-04-15T13:48:50.846Z,15.80
2023-04-15T13:51:18.650Z,15.69
2023-04-15T13:53:46.289Z,15.87
2023-04-15T13:56:13.746Z,15.94
2023-04-15T13:58:41.732Z,16.04
2023-04-15T14:01:09.236Z,16.08
2023-04-15T14:03:37.306Z,15.89
2023-04-15T14:06:05.864Z,15.90
2023-04-15T14:08:33.772Z,15.97
2023-04-15T14:11:01.480Z,15.78
2023-04-15T14:13:28.966Z,15.85
2023-04-15T14:15:57.155Z,15.65
2023-04-15T14:18:24.942Z,15.61
2023-04-15T14:20:52.445Z,15.44
2023-04-15T14:23:19.980Z,15.54
2023-04-15T14:25:48.468Z,15.46
2023-04-15T14:28:16.083Z,15.58
2023-04-15T14:30:44.006Z,15.36
2023-04-15T14:33:11.830Z,15.44
2023-04-15T14:35:39.362Z,15.31
2023-04-15T14:38:10.448Z,15.36
2023-04-15T14:40:40.684Z,15.28
2023-04-15T14:43:08.201Z,15.42
2023-04-15T14:45:36.441Z,15.63
2023-04-15T14:48:06.450Z,15.67
2023-04-15T14:50:34.048Z,15.74
2023-04-15T14:53:01.713Z,15.92
2023-04-15T14:55:29.405Z,15.92
2023-04-15T14:57:56.830Z,15.89
2023-04-15T15:00:24.442Z,15.79
2023-04-15T15:02:52.134Z,15.64
2023-04-15T15:05:19.700Z,15.64
2023-04-15T15:07:48.138Z,15.77
2023-04-15T15:10:15.860Z,15.57
2023-04-15T15:12:43.325Z,15.45
2023-04-15T15:15:24.933Z,15.68
2023-04-15T15:17:56.216Z,15.38
2023-04-15T15:20:24.996Z,15.27
2023-04-15T15:22:52.417Z,15.29
2023-04-15T15:25:20.168Z,15.15
2023-04-15T15:27:47.632Z,15.12
2023-04-15T15:30:15.371Z,15.25
2023-04-15T15:32:43.363Z,15.08
2023-04-15T15:35:11.200Z,14.95
2023-04-15T15:37:38.792Z,14.97
2023-04-15T15:40:07.785Z,15.06
2023-04-15T15:42:36.123Z,14.80
2023-04-15T15:45:04.644Z,14.65
2023-04-15T15:47:33.540Z,14.50
2023-04-15T15:50:05.970Z,14.48
2023-04-15T15:52:34.024Z,14.23
2023-04-15T15:55:02.028Z,14.48
2023-04-15T15:57:29.415Z,14.60
2023-04-15T16:00:10.420Z,14.54
2023-04-15T16:05:11.326Z,14.56
2023-04-15T16:07:38.758Z,14.52
2023-04-15T16:10:07.103Z,14.49
2023-04-15T16:12:35.008Z,14.48
2023-04-15T16:15:03.827Z,14.55
2023-04-15T16:17:32.328Z,14.53
2023-04-15T16:20:01.072Z,14.54
2023-04-15T16:22:29.036Z,14.61
2023-04-15T16:24:56.704Z,14.67
2023-04-15T16:27:24.425Z,14.72
2023-04-15T16:29:51.879Z,14.77
2023-04-15T16:32:19.992Z,14.75
2023-04-15T16:34:47.867Z,14.75
2023-04-15T16:37:15.438Z,14.53
2023-04-15T16:39:43.189Z,14.60
2023-04-15T16:42:10.564Z,14.59
2023-04-15T16:44:38.016Z,14.58
2023-04-15T16:47:05.872Z,14.48
2023-04-15T16:49:34.914Z,14.58
2023-04-15T16:52:02.626Z,14.38
2023-04-15T16:54:30.358Z,14.42
2023-04-15T16:56:58.626Z,14.33
2023-04-15T16:59:26.292Z,14.35
2023-04-15T17:01:54.964Z,14.22
2023-04-15T17:04:22.693Z,14.27
2023-04-15T17:06:50.424Z,14.32
2023-04-15T17:09:18.223Z,14.14
2023-04-15T17:11:45.977Z,14.11
2023-04-15T17:14:13.383Z,14.18
2023-04-15T17:16:43.262Z,14.26
2023-04-15T17:19:10.762Z,14.18
2023-04-15T17:21:44.664Z,14.12
2023-04-15T17:24:19.273Z,13.91
2023-04-15T17:26:51.481Z,13.91
2023-04-15T17:29:19.302Z,13.88
2023-04-15T17:31:49.581Z,13.87
2023-04-15T17:34:49.728Z,13.79
2023-04-15T17:37:38.805Z,13.87
2023-04-15T17:40:26.085Z,13.79
2023-04-15T17:43:13.638Z,13.86
2023-04-15T17:46:00.999Z,13.75
2023-04-15T17:48:49.473Z,13.67
2023-04-15T17:51:36.831Z,13.77
2023-04-15T17:54:28.005Z,13.63
2023-04-15T17:57:15.568Z,13.58
2023-04-15T18:00:03.349Z,13.59
2023-04-15T18:02:59.882Z,13.47
2023-04-15T18:05:47.841Z,13.47
2023-04-15T18:08:35.372Z,13.44
2023-04-15T18:11:23.099Z,13.40
2023-04-15T18:14:11.293Z,13.46
2023-04-15T18:17:00.613Z,13.39
2023-04-15T18:19:47.994Z,13.15
2023-04-15T18:22:15.761Z,13.07
2023-04-15T18:24:43.293Z,13.15
2023-04-15T18:27:10.814Z,13.05
2023-04-15T18:29:38.848Z,13.10
2023-04-15T18:32:06.520Z,13.08
2023-04-15T18:34:34.292Z,13.02
2023-04-15T18:37:02.199Z,13.10
2023-04-15T18:39:29.747Z,12.81
2023-04-15T18:41:57.426Z,12.71
2023-04-15T18:44:25.345Z,12.55
2023-04-15T18:46:52.751Z,12.58
2023-04-15T18:49:20.134Z,12.68
2023-04-15T18:51:47.822Z,12.74
2023-04-15T18:54:15.564Z,12.64
2023-04-15T18:56:42.935Z,12.61
2023-04-15T18:59:28.801Z,12.58
2023-04-15T19:01:59.635Z,12.58
2023-04-15T19:04:29.395Z,12.50
2023-04-15T19:06:57.308Z,12.45
2023-04-15T19:09:24.862Z,12.39
2023-04-15T19:11:52.544Z,12.41
2023-04-15T19:14:22.784Z,12.31
2023-04-15T19:16:50.371Z,12.28
2023-04-15T19:19:18.169Z,12.34
2023-04-15T19:21:47.586Z,12.37
2023-04-15T19:24:15.130Z,12.28
2023-04-15T19:26:44.642Z,12.23
2023-04-15T19:29:12.238Z,12.26
2023-04-15T19:31:39.995Z,12.18
2023-04-15T19:34:07.730Z,12.29
2023-04-15T19:36:35.371Z,12.31
2023-04-15T19:39:03.008Z,12.34
2023-04-15T19:41:30.862Z,12.34
2023-04-15T19:43:59.674Z,12.23
2023-04-15T19:46:27.834Z,12.14
2023-04-15T19:48:55.788Z,12.28
2023-04-15T19:51:23.231Z,12.20
2023-04-15T19:53:50.957Z,12.07
2023-04-15T19:56:18.752Z,12.07
2023-04-15T19:58:50.798Z,11.98
2023-04-15T20:01:19.135Z,11.92
2023-04-15T20:03:47.095Z,11.94
2023-04-15T20:06:15.300Z,11.99
2023-04-15T20:08:43.247Z,12.10
2023-04-15T20:11:12.069Z,12.14
2023-04-15T20:13:42.608Z,12.01
2023-04-15T20:16:11.654Z,12.10
2023-04-15T20:18:39.472Z,11.89
2023-04-15T20:21:06.882Z,12.01
2023-04-15T20:23:35.909Z,11.89
2023-04-15T20:26:03.683Z,11.91
2023-04-15T20:28:31.159Z,11.93
2023-04-15T20:31:00.533Z,12.01
2023-04-15T20:33:28.286Z,11.72
2023-04-15T20:35:55.796Z,11.76
2023-04-15T20:38:23.197Z,11.69
2023-04-15T20:40:51.242Z,11.72
2023-04-15T20:43:18.653Z,11.82
2023-04-15T20:45:46.409Z,11.93
2023-04-15T20:48:14.218Z,11.94
2023-04-15T20:50:41.702Z,11.97
2023-04-15T20:53:09.107Z,11.99
2023-04-15T20:55:36.806Z,11.95
2023-04-15T20:58:04.389Z,11.85
2023-04-15T21:00:33.064Z,11.76
2023-04-15T21:03:01.260Z,11.91
2023-04-15T21:05:28.724Z,11.65
2023-04-15T21:07:56.352Z,11.77
2023-04-15T21:10:25.172Z,11.81
2023-04-15T21:12:52.575Z,11.83
2023-04-15T21:15:20.008Z,11.90
2023-04-15T21:17:47.787Z,11.75
2023-04-15T21:20:15.534Z,11.55
2023-04-15T21:22:42.891Z,11.68
2023-04-15T21:25:10.612Z,11.72
2023-04-15T21:27:38.064Z,11.70
2023-04-15T21:30:06.081Z,11.65
2023-04-15T21:32:33.879Z,11.67
2023-04-15T21:35:01.469Z,11.62
2023-04-15T21:37:29.058Z,11.75
2023-04-15T21:39:56.791Z,11.69
2023-04-15T21:42:24.179Z,11.76
2023-04-15T21:44:51.588Z,11.70
2023-04-15T21:47:19.332Z,11.71
2023-04-15T21:49:46.874Z,11.68
2023-04-15T21:52:14.302Z,11.74
2023-04-15T21:54:42.082Z,11.59
2023-04-15T21:57:09.470Z,11.58
2023-04-15T21:59:36.936Z,11.51
2023-04-15T22:02:04.745Z,11.53
2023-04-15T22:04:32.486Z,11.42
2023-04-15T22:07:02.300Z,11.58
2023-04-15T22:09:29.681Z,11.68
2023-04-15T22:11:59.352Z,11.70
2023-04-15T22:14:27.084Z,11.74
2023-04-15T22:16:55.090Z,11.68
2023-04-15T22:19:23.155Z,11.66
2023-04-15T22:21:51.237Z,11.57
2023-04-15T22:24:39.161Z,11.55
2023-04-15T22:27:06.338Z,11.61
2023-04-15T22:29:33.763Z,11.66
2023-04-15T22:32:01.213Z,11.64
2023-04-15T22:34:28.860Z,11.64
2023-04-15T22:36:56.267Z,11.52
2023-04-15T22:39:23.704Z,11.59
2023-04-15T22:41:51.414Z,11.75
2023-04-15T22:44:18.847Z,11.67
2023-04-15T22:46:46.247Z,11.70
2023-04-15T22:49:13.954Z,11.58
2023-04-15T22:51:41.370Z,11.81
2023-04-15T22:54:08.865Z,11.78
2023-04-15T22:56:36.531Z,11.73
2023-04-15T22:59:04.006Z,11.70
2023-04-15T23:01:32.403Z,11.60
2023-04-15T23:04:06.497Z,11.43
2023-04-15T23:06:34.834Z,11.34
2023-04-15T23:09:02.527Z,11.48
2023-04-15T23:11:30.070Z,11.62
2023-04-15T23:13:57.497Z,11.67
2023-04-15T23:16:25.469Z,11.60
2023-04-15T23:18:52.955Z,11.67
2023-04-15T23:21:20.903Z,11.57
2023-04-15T23:23:48.556Z,11.60
2023-04-15T23:26:15.942Z,11.56
2023-04-15T23:28:43.382Z,11.58
2023-04-15T23:31:11.125Z,11.48
2023-04-15T23:33:38.632Z,11.48
2023-04-15T23:36:06.419Z,11.47
2023-04-15T23:38:34.120Z,11.45
2023-04-15T23:41:01.629Z,11.45
2023-04-15T23:43:29.063Z,11.29
2023-04-15T23:45:56.755Z,11.26
2023-04-15T23:48:24.187Z,11.19
2023-04-15T23:50:51.819Z,11.17
2023-04-15T23:53:19.585Z,11.22
2023-04-15T23:55:47.950Z,11.32
2023-04-15T23:58:15.326Z,11.25
